Time;durP1;ratioP1;P1;durP2;ratioP2;P2;SDS_P1;SDS_P2;PMS_P1;PMS_P2;Temp;Humidity;BMP_temperature;BMP_pressure;BME280_temperature;BME280_humidity;BME280_pressure;Samples;Min_cycle;Max_cycle;Signal;HPM_P1;HPM_P2
2022/02/18 00:02:13;;;;;;;;;22.25;22.25;;;;;6.10;85.76;99525.25;5140524;27;11581;-71
2022/02/18 00:04:54;;;;;;;;;22.00;22.00;;;;;6.07;86.07;99503.97;5132468;27;11524;-72
2022/02/18 00:07:53;;;;;;;;;26.50;26.50;;;;;6.05;86.62;99495.25;5131695;27;11523;-73
2022/02/18 00:10:49;;;;;;;;;21.75;21.75;;;;;6.10;87.20;99508.00;5131704;27;11527;-72
2022/02/18 00:13:45;;;;;;;;;25.75;24.25;;;;;6.09;86.76;99498.16;5149851;27;11528;-73
2022/02/18 00:16:40;;;;;;;;;19.00;19.00;;;;;6.05;87.17;99489.75;5152109;27;11674;-73
2022/02/18 00:19:36;;;;;;;;;25.50;22.75;;;;;5.99;88.02;99498.53;5152205;27;11515;-73
2022/02/18 00:22:32;;;;;;;;;18.50;18.00;;;;;6.02;88.57;99497.84;5151371;27;11486;-73
2022/02/18 00:25:34;;;;;;;;;25.25;22.75;;;;;6.14;88.53;99500.72;5149860;27;11658;-74
2022/02/18 00:28:30;;;;;;;;;19.50;19.00;;;;;6.05;88.72;99519.13;5152013;27;11492;-73
2022/02/18 00:31:25;;;;;;;;;24.25;23.50;;;;;6.29;87.49;99513.88;5141142;27;11509;-73
2022/02/18 00:34:21;;;;;;;;;27.00;27.00;;;;;6.15;88.01;99512.50;5131256;27;11585;-73
2022/02/18 00:37:18;;;;;;;;;29.00;27.25;;;;;6.02;88.21;99519.81;5131059;27;11535;-73
2022/02/18 00:40:14;;;;;;;;;22.50;20.75;;;;;6.16;87.75;99506.69;5132917;27;11522;-73
2022/02/18 00:43:11;;;;;;;;;22.25;22.00;;;;;6.09;87.68;99509.94;5130930;27;11507;-72
2022/02/18 00:46:08;;;;;;;;;17.50;17.50;;;;;6.07;87.46;99517.69;5131128;27;11507;-71
2022/02/18 00:49:03;;;;;;;;;22.00;22.00;;;;;6.21;86.71;99519.41;5117091;27;11500;-73
2022/02/18 00:51:59;;;;;;;;;24.50;24.50;;;;;6.17;87.01;99524.75;5131221;27;11478;-72
2022/02/18 00:54:54;;;;;;;;;21.00;21.00;;;;;6.09;87.48;99529.16;5130921;27;11514;-72
2022/02/18 00:57:50;;;;;;;;;21.00;21.00;;;;;6.18;87.14;99523.63;5130710;27;11493;-72
2022/02/18 01:00:49;;;;;;;;;22.50;21.50;;;;;6.11;87.25;99512.34;5136482;27;11534;-73
2022/02/18 01:03:45;;;;;;;;;25.25;22.50;;;;;6.19;87.01;99508.75;5150818;27;11567;-74
2022/02/18 01:06:40;;;;;;;;;26.25;26.25;;;;;6.26;87.14;99500.81;5151055;27;11491;-73
2022/02/18 01:09:36;;;;;;;;;30.00;30.00;;;;;6.22;86.91;99497.13;5143418;27;11515;-73
2022/02/18 01:12:32;;;;;;;;;24.50;21.00;;;;;6.30;86.82;99499.03;5150238;27;11653;-73
2022/02/18 01:15:28;;;;;;;;;27.75;27.00;;;;;6.21;86.75;99497.44;5150961;27;12240;-73
2022/02/18 01:18:24;;;;;;;;;22.00;22.00;;;;;6.40;86.40;99495.09;5137084;27;11536;-73
2022/02/18 01:21:22;;;;;;;;;20.00;18.75;;;;;6.37;86.55;99498.50;5150416;27;11499;-73
2022/02/18 01:24:18;;;;;;;;;25.25;22.75;;;;;6.37;86.67;99504.78;5150566;27;11483;-73
2022/02/18 01:26:45;;;;;;;;;19.00;18.75;;;;;6.31;86.70;99494.34;5151843;27;11793;-73
2022/02/18 01:29:41;;;;;;;;;22.75;22.75;;;;;6.21;86.48;99498.25;5150611;27;12393;-73
2022/02/18 01:32:38;;;;;;;;;19.00;19.00;;;;;6.33;86.13;99500.28;5150508;27;11501;-73
2022/02/18 01:35:33;;;;;;;;;17.00;17.00;;;;;6.40;86.03;99495.09;5150683;27;11472;-73
2022/02/18 01:38:29;;;;;;;;;30.75;24.25;;;;;6.32;86.90;99494.00;5150294;27;11476;-74
2022/02/18 01:41:25;;;;;;;;;22.25;19.25;;;;;6.23;86.67;99490.50;5133619;27;11554;-73
2022/02/18 01:44:34;;;;;;;;;24.50;24.50;;;;;6.20;87.60;99482.91;5129641;27;11490;-74
2022/02/18 01:47:29;;;;;;;;;27.00;27.00;;;;;6.19;87.70;99475.81;5115750;27;11521;-73
2022/02/18 01:50:25;;;;;;;;;24.00;23.50;;;;;6.21;87.37;99476.31;5130782;27;11618;-74
2022/02/18 01:53:02;;;;;;;;;21.50;21.50;;;;;6.12;87.70;99483.75;5130765;27;11516;-74
2022/02/18 01:55:58;;;;;;;;;26.75;26.00;;;;;6.28;87.21;99476.56;5132357;27;11481;-73
2022/02/18 01:58:53;;;;;;;;;19.00;19.00;;;;;6.16;86.99;99478.41;5150295;27;11574;-72
2022/02/18 02:01:49;;;;;;;;;25.00;25.00;;;;;6.31;86.73;99478.66;5129401;27;11513;-73
2022/02/18 02:04:17;;;;;;;;;25.25;25.25;;;;;6.30;87.33;99484.50;5130499;27;11534;-73
2022/02/18 02:06:44;;;;;;;;;21.25;21.25;;;;;6.24;87.55;99491.28;5112175;27;11595;-73
2022/02/18 02:09:26;;;;;;;;;29.25;26.00;;;;;6.30;87.82;99492.72;5129938;27;11531;-73
2022/02/18 02:11:53;;;;;;;;;23.25;23.25;;;;;6.32;87.16;99495.94;5130598;27;11513;-74
2022/02/18 02:14:34;;;;;;;;;20.75;20.00;;;;;6.33;86.99;99489.31;5129177;27;11582;-74
2022/02/18 02:17:30;;;;;;;;;23.75;22.75;;;;;6.23;87.66;99479.50;5129333;27;12330;-73
2022/02/18 02:20:25;;;;;;;;;25.50;23.75;;;;;6.28;87.37;99479.31;5139055;27;11501;-75
2022/02/18 02:23:22;;;;;;;;;22.25;22.25;;;;;6.33;87.50;99489.31;5149831;27;11498;-73
2022/02/18 02:26:17;;;;;;;;;27.00;24.25;;;;;6.23;87.88;99487.75;5149748;27;11500;-74
2022/02/18 02:29:14;;;;;;;;;24.25;24.25;;;;;6.31;87.70;99480.59;5149775;27;11514;-72
2022/02/18 02:32:09;;;;;;;;;26.00;22.00;;;;;6.36;87.26;99469.41;5134544;27;12259;-74
2022/02/18 02:35:05;;;;;;;;;20.75;20.75;;;;;6.36;87.21;99472.16;5128809;27;11494;-73
2022/02/18 02:38:02;;;;;;;;;28.75;25.25;;;;;6.22;87.89;99464.19;5128344;27;11519;-72
2022/02/18 02:40:57;;;;;;;;;28.00;25.25;;;;;6.28;87.68;99478.50;5130176;27;11650;-72
2022/02/18 02:43:27;;;;;;;;;24.75;24.75;;;;;6.11;88.12;99485.69;5129749;27;11515;-73
2022/02/18 02:46:23;;;;;;;;;35.25;33.00;;;;;6.25;87.77;99488.22;5129457;27;11543;-73
2022/02/18 02:49:20;;;;;;;;;18.75;17.75;;;;;6.26;87.60;99494.50;5128829;27;11506;-75
2022/02/18 02:52:15;;;;;;;;;25.50;22.50;;;;;6.31;87.76;99506.13;5147479;27;11474;-74
2022/02/18 02:55:13;;;;;;;;;30.00;29.00;;;;;6.35;88.10;99506.25;5149553;27;11540;-74
2022/02/18 02:58:09;;;;;;;;;24.00;24.00;;;;;6.36;87.68;99513.34;5143281;27;11513;-72
2022/02/18 03:01:05;;;;;;;;;21.50;21.50;;;;;6.20;88.43;99515.84;5140615;27;11771;-74
2022/02/18 03:04:01;;;;;;;;;22.25;22.25;;;;;6.24;88.51;99522.31;5128508;27;11563;-74
2022/02/18 03:06:57;;;;;;;;;23.25;21.50;;;;;6.37;88.20;99515.78;5148293;27;11516;-74
2022/02/18 03:09:53;;;;;;;;;24.25;23.00;;;;;6.37;88.18;99521.28;5149252;27;11494;-74
2022/02/18 03:12:48;;;;;;;;;19.75;19.00;;;;;6.32;88.80;99515.97;5147469;27;11575;-74
2022/02/18 03:15:44;;;;;;;;;27.75;27.75;;;;;6.24;89.45;99518.75;5149278;27;11640;-74
2022/02/18 03:18:41;;;;;;;;;23.00;22.25;;;;;6.30;89.61;99509.19;5149200;27;11504;-76
2022/02/18 03:21:36;;;;;;;;;26.00;26.00;;;;;6.27;90.23;99502.41;5143006;27;11658;-72
2022/02/18 03:24:33;;;;;;;;;22.50;22.50;;;;;6.29;90.06;99493.88;5128684;27;11525;-75
2022/02/18 03:27:29;;;;;;;;;27.25;25.75;;;;;6.23;90.47;99482.25;5128325;27;12275;-74
2022/02/18 03:29:57;;;;;;;;;23.50;23.25;;;;;6.15;91.15;99496.84;5129531;27;12939;-71
2022/02/18 03:32:52;;;;;;;;;22.00;22.00;;;;;6.29;90.57;99494.66;5145585;27;11500;-73
2022/02/18 03:35:48;;;;;;;;;27.00;26.75;;;;;6.24;91.00;99483.06;5149015;27;11499;-73
2022/02/18 03:38:43;;;;;;;;;32.25;28.25;;;;;6.23;91.06;99501.47;5149045;27;11523;-73
2022/02/18 03:41:39;;;;;;;;;21.25;18.50;;;;;6.31;90.72;99494.34;5146924;27;11619;-73
2022/02/18 03:44:35;;;;;;;;;25.75;24.00;;;;;6.24;91.07;99485.81;5148825;27;12875;-73
2022/02/18 03:47:30;;;;;;;;;26.75;26.00;;;;;6.20;91.43;99487.59;5149003;27;11497;-75
2022/02/18 03:50:26;;;;;;;;;27.75;27.50;;;;;6.22;90.62;99480.66;5152764;27;11491;-74
2022/02/18 03:53:22;;;;;;;;;23.25;23.25;;;;;6.14;91.45;99492.47;5149272;27;11615;-74
2022/02/18 03:56:19;;;;;;;;;27.75;26.75;;;;;6.22;90.94;99502.63;5152892;27;11505;-75
2022/02/18 03:59:14;;;;;;;;;21.50;21.50;;;;;6.18;91.38;99503.59;5152688;27;11533;-73
2022/02/18 04:02:10;;;;;;;;;24.75;23.50;;;;;6.18;91.37;99504.41;5150832;27;11507;-73
2022/02/18 04:05:06;;;;;;;;;25.50;24.50;;;;;6.17;91.93;99511.03;5152545;27;11806;-74
2022/02/18 04:08:02;;;;;;;;;22.75;22.75;;;;;6.19;92.02;99508.75;5152455;27;11506;-75
2022/02/18 04:10:30;;;;;;;;;28.75;27.00;;;;;6.17;91.75;99511.03;5134938;27;11496;-74
2022/02/18 04:13:25;;;;;;;;;26.75;26.50;;;;;6.16;92.64;99512.16;5134953;27;11548;-74
2022/02/18 04:20:14;;;;;;;;;23.50;23.50;;;;;6.08;93.27;99524.00;5131519;27;11654;-74
2022/02/18 04:23:10;;;;;;;;;17.00;15.00;;;;;6.00;93.17;99522.09;5140651;27;11486;-74
2022/02/18 04:26:06;;;;;;;;;24.00;24.00;;;;;6.05;93.94;99513.66;5141460;27;12329;-74
2022/02/18 04:29:02;;;;;;;;;21.25;21.25;;;;;6.10;93.46;99508.00;5131412;27;11682;-75
2022/02/18 04:31:57;;;;;;;;;25.75;25.75;;;;;6.08;93.43;99518.50;5133093;27;12290;-74
2022/02/18 04:34:53;;;;;;;;;16.75;16.75;;;;;6.06;93.80;99531.75;5151952;27;11496;-75
2022/02/18 04:37:49;;;;;;;;;22.25;22.00;;;;;6.03;94.06;99526.91;5145945;27;11534;-76
2022/02/18 04:40:44;;;;;;;;;27.75;27.75;;;;;5.99;94.78;99536.94;5133110;27;11520;-75
2022/02/18 04:43:40;;;;;;;;;32.50;30.25;;;;;5.95;95.34;99538.72;5139839;27;12253;-74
2022/02/18 04:46:35;;;;;;;;;37.25;37.25;;;;;5.92;95.37;99542.13;5151661;27;11599;-75
2022/02/18 04:49:31;;;;;;;;;51.00;43.25;;;;;5.82;96.22;99538.56;5150690;27;11501;-73
2022/02/18 04:52:27;;;;;;;;;41.25;40.25;;;;;5.88;96.01;99541.13;5151116;27;11544;-74
2022/02/18 04:55:09;;;;;;;;;36.25;35.50;;;;;5.96;95.85;99546.63;5131638;27;11521;-74
2022/02/18 04:57:48;;;;;;;;;36.25;36.25;;;;;5.98;95.66;99558.09;5132163;27;11525;-73
2022/02/18 05:00:25;;;;;;;;;36.00;33.75;;;;;5.96;96.12;99562.28;5135732;27;11508;-75
2022/02/18 05:03:20;;;;;;;;;31.75;27.00;;;;;6.02;95.80;99572.75;5142780;27;11484;-73
2022/02/18 05:05:48;;;;;;;;;33.50;30.50;;;;;6.03;96.11;99568.06;5156773;27;12290;-74
2022/02/18 05:08:29;;;;;;;;;29.25;29.25;;;;;6.13;95.68;99573.19;5156009;27;11491;-75
2022/02/18 05:10:58;;;;;;;;;34.75;31.00;;;;;6.22;95.22;99573.19;5156740;27;12267;-76
2022/02/18 05:13:32;;;;;;;;;24.50;23.75;;;;;6.23;95.16;99574.81;5138450;27;11490;-75
2022/02/18 05:16:21;;;;;;;;;24.25;23.50;;;;;6.15;95.90;99581.94;5151957;27;11511;-75
2022/02/18 05:19:16;;;;;;;;;29.25;28.75;;;;;6.21;95.64;99580.63;5135239;27;11536;-74
2022/02/18 05:21:44;;;;;;;;;27.75;26.75;;;;;6.26;95.75;99579.63;5142162;27;11519;-76
2022/02/18 05:24:12;;;;;;;;;26.50;22.75;;;;;6.26;96.10;99583.16;5137337;27;11510;-73
2022/02/18 05:26:43;;;;;;;;;31.75;31.75;;;;;6.29;95.88;99585.28;5135497;27;11470;-73
2022/02/18 05:29:38;;;;;;;;;33.00;32.75;;;;;6.36;95.73;99592.97;5141235;27;11505;-73
2022/02/18 05:32:34;;;;;;;;;28.75;28.25;;;;;6.34;95.38;99590.56;5152683;27;11485;-74
2022/02/18 05:35:30;;;;;;;;;25.50;25.50;;;;;6.31;96.08;99582.19;5133622;27;11565;-75
2022/02/18 05:38:28;;;;;;;;;27.25;26.50;;;;;6.34;96.15;99576.84;5134305;27;11577;-74
2022/02/18 05:41:24;;;;;;;;;32.50;32.25;;;;;6.41;96.51;99596.34;5136974;27;11494;-73
2022/02/18 05:44:19;;;;;;;;;32.00;32.00;;;;;6.40;96.62;99600.25;5154119;27;11603;-73
2022/02/18 05:46:47;;;;;;;;;23.75;23.75;;;;;6.50;96.31;99603.75;5155893;27;11542;-76
2022/02/18 05:49:43;;;;;;;;;31.25;28.50;;;;;6.55;95.90;99612.63;5152393;27;11507;-75
2022/02/18 05:52:40;;;;;;;;;24.75;24.75;;;;;6.48;95.75;99614.28;5142967;27;11540;-74
2022/02/18 05:55:09;;;;;;;;;27.50;26.75;;;;;6.37;96.69;99606.41;5136123;27;11613;-76
2022/02/18 05:58:04;;;;;;;;;31.75;31.75;;;;;6.51;96.06;99600.66;5140846;27;11518;-75
2022/02/18 06:00:34;;;;;;;;;49.50;40.00;;;;;6.58;95.91;99598.22;5155510;27;11581;-75
2022/02/18 06:03:24;;;;;;;;;34.50;32.75;;;;;6.60;95.85;99600.66;5121875;27;11716;-75
2022/02/18 06:05:52;;;;;;;;;29.25;29.25;;;;;6.60;96.55;99608.91;5140453;27;11531;-75
2022/02/18 06:08:22;;;;;;;;;37.50;36.50;;;;;6.62;96.00;99617.59;5134728;27;11509;-75
2022/02/18 06:10:50;;;;;;;;;35.50;35.50;;;;;6.69;96.28;99621.44;5151835;27;11511;-75
2022/02/18 06:13:18;;;;;;;;;29.00;28.75;;;;;6.72;96.12;99632.91;5131869;27;11562;-75
2022/02/18 06:16:14;;;;;;;;;31.75;31.75;;;;;6.75;95.56;99637.72;5134041;27;11553;-75
2022/02/18 06:19:10;;;;;;;;;37.50;36.00;;;;;6.93;94.34;99647.50;5133931;27;11501;-79
2022/02/18 06:22:05;;;;;;;;;33.50;30.00;;;;;6.93;94.75;99647.50;5143782;27;11539;-77
2022/02/18 06:24:50;;;;;;;;;32.75;32.75;;;;;6.96;94.55;99636.66;5141010;27;11498;-77
2022/02/18 06:27:46;;;;;;;;;31.75;31.00;;;;;6.88;95.06;99636.69;5133491;27;12337;-77
2022/02/18 06:30:42;;;;;;;;;37.00;37.00;;;;;6.95;94.67;99628.75;5137054;27;11478;-78
2022/02/18 06:33:37;;;;;;;;;34.25;34.25;;;;;7.10;94.25;99639.16;5141724;27;11529;-77
2022/02/18 06:36:33;;;;;;;;;39.50;38.25;;;;;7.06;94.42;99637.44;5148847;27;11499;-76
2022/02/18 06:39:29;;;;;;;;;39.75;38.50;;;;;7.11;93.45;99639.97;5150107;27;11518;-77
2022/02/18 06:42:25;;;;;;;;;34.50;33.00;;;;;7.11;93.78;99645.47;5139625;27;11509;-76
2022/02/18 06:45:20;;;;;;;;;33.25;33.25;;;;;7.08;93.43;99641.44;5139178;27;11499;-77
2022/02/18 06:48:17;;;;;;;;;33.25;33.25;;;;;7.15;93.71;99643.66;5139698;27;11537;-76
2022/02/18 06:51:12;;;;;;;;;45.25;41.00;;;;;7.23;93.07;99642.81;5153151;27;11495;-76
2022/02/18 06:54:08;;;;;;;;;35.50;29.25;;;;;7.33;93.31;99647.91;5147826;27;11525;-77
2022/02/18 06:57:05;;;;;;;;;38.50;37.25;;;;;7.33;92.63;99650.66;5146955;27;11499;-77
2022/02/18 07:00:00;;;;;;;;;39.50;34.75;;;;;7.52;92.54;99659.25;5137223;27;11486;-76
2022/02/18 07:02:57;;;;;;;;;28.75;28.00;;;;;7.70;91.28;99654.41;5139971;27;11512;-77
2022/02/18 07:05:25;;;;;;;;;32.25;30.75;;;;;7.71;91.85;99661.53;5125120;27;11443;-78
2022/02/18 07:08:21;;;;;;;;;34.50;34.25;;;;;7.86;91.07;99671.13;5153366;27;11589;-76
2022/02/18 07:10:49;;;;;;;;;31.25;30.50;;;;;8.15;90.59;99675.72;5133688;27;12215;-76
2022/02/18 07:13:45;;;;;;;;;22.75;22.75;;;;;8.27;89.67;99684.00;5132595;27;11606;-76
2022/02/18 07:16:41;;;;;;;;;44.25;36.50;;;;;8.39;88.85;99679.72;5126677;27;12273;-77
2022/02/18 07:19:37;;;;;;;;;36.75;36.50;;;;;8.48;89.48;99685.94;5153443;27;11488;-77
2022/02/18 07:22:35;;;;;;;;;44.75;40.25;;;;;8.35;88.81;99693.34;5150604;27;11507;-76
2022/02/18 07:25:31;;;;;;;;;49.00;43.00;;;;;8.38;89.05;99695.44;5157284;27;11577;-77
2022/02/18 07:28:27;;;;;;;;;37.75;36.50;;;;;8.58;88.60;99704.78;5152708;27;11488;-77
2022/02/18 07:31:22;;;;;;;;;39.50;38.25;;;;;8.84;88.29;99687.94;5139109;27;11585;-76
2022/02/18 07:34:18;;;;;;;;;40.75;36.75;;;;;8.90;87.97;99687.38;5145645;27;11542;-78
2022/02/18 07:36:47;;;;;;;;;41.75;39.00;;;;;8.96;87.57;99684.38;5158475;27;11523;-78
2022/02/18 07:39:15;;;;;;;;;40.50;36.50;;;;;9.23;85.86;99686.44;5157356;27;11516;-78
2022/02/18 07:41:43;;;;;;;;;32.75;32.75;;;;;9.27;86.34;99683.78;5126495;27;11482;-77
2022/02/18 07:44:39;;;;;;;;;42.75;39.00;;;;;9.29;86.55;99676.00;5156875;27;11449;-78
2022/02/18 07:47:34;;;;;;;;;44.75;40.50;;;;;9.13;87.24;99670.38;5156717;27;11436;-78
2022/02/18 07:50:05;;;;;;;;;35.00;35.00;;;;;9.16;87.47;99673.22;5156787;27;11537;-77
2022/02/18 07:52:36;;;;;;;;;41.75;36.50;;;;;9.29;86.61;99676.00;5157792;27;11484;-78
2022/02/18 07:55:32;;;;;;;;;37.75;36.25;;;;;9.34;85.88;99692.28;5156967;27;11445;-78
2022/02/18 07:58:00;;;;;;;;;39.50;38.00;;;;;9.40;85.21;99696.44;5139689;27;12240;-77
2022/02/18 08:00:28;;;;;;;;;49.00;43.00;;;;;9.45;85.42;99685.97;5156856;27;12245;-78
2022/02/18 08:02:58;;;;;;;;;53.50;45.50;;;;;9.70;85.07;99686.72;5154582;27;11418;-78
2022/02/18 08:05:54;;;;;;;;;42.00;38.25;;;;;9.87;82.80;99688.38;5136038;27;11426;-78
2022/02/18 08:08:50;;;;;;;;;41.00;37.50;;;;;10.13;81.21;99696.25;5138429;27;11439;-78
2022/02/18 08:11:19;;;;;;;;;37.00;36.25;;;;;10.09;78.00;99700.84;5146160;27;11431;-77
2022/02/18 08:13:47;;;;;;;;;38.50;37.50;;;;;10.11;78.29;99704.06;5153846;27;11575;-78
2022/02/18 08:16:42;;;;;;;;;41.75;36.50;;;;;10.23;78.74;99706.81;5135239;27;11454;-76
2022/02/18 08:19:24;;;;;;;;;31.50;31.50;;;;;10.31;78.08;99705.06;5129552;27;11173;-76
2022/02/18 08:21:55;;;;;;;;;19.50;19.50;;;;;10.46;76.10;99717.31;5139498;27;11102;-78
2022/02/18 08:24:52;;;;;;;;;32.50;31.50;;;;;10.83;76.58;99717.88;5156688;27;10837;-77
2022/02/18 08:27:47;;;;;;;;;36.25;35.00;;;;;10.68;76.23;99715.91;5139100;27;11745;-78
2022/02/18 08:30:45;;;;;;;;;40.00;35.25;;;;;10.70;75.28;99713.59;5121714;27;11182;-78
2022/02/18 08:33:44;;;;;;;;;26.00;26.00;;;;;10.62;75.26;99709.03;5132248;27;10843;-78
2022/02/18 08:36:25;;;;;;;;;29.00;26.00;;;;;10.85;76.13;99710.03;5135888;27;10645;-77
2022/02/18 08:39:21;;;;;;;;;27.50;27.50;;;;;11.03;72.76;99716.00;5135355;27;10801;-77
2022/02/18 08:41:48;;;;;;;;;25.75;25.75;;;;;11.02;74.46;99708.88;5125502;27;10765;-81
2022/02/18 08:44:44;;;;;;;;;23.00;23.00;;;;;11.14;74.22;99714.31;5155775;27;10779;-79
2022/02/18 08:47:13;;;;;;;;;26.75;26.75;;;;;11.10;73.03;99718.94;5145176;27;10473;-77
2022/02/18 08:50:09;;;;;;;;;25.00;22.25;;;;;10.60;72.29;99717.69;5121433;27;10645;-78
2022/02/18 08:53:05;;;;;;;;;19.50;19.50;;;;;10.76;71.70;99726.81;5128376;27;10537;-78
2022/02/18 08:55:33;;;;;;;;;15.00;14.50;;;;;10.82;71.46;99721.81;5135637;27;10441;-78
2022/02/18 08:58:15;;;;;;;;;18.50;18.50;;;;;10.89;72.05;99733.06;5156293;27;10439;-78
2022/02/18 09:01:11;;;;;;;;;15.50;15.50;;;;;10.71;70.84;99738.13;5156650;27;10544;-79
2022/02/18 09:03:39;;;;;;;;;21.25;21.25;;;;;10.62;72.09;99734.72;5121554;27;10468;-78
2022/02/18 09:06:09;;;;;;;;;13.75;13.75;;;;;10.76;71.73;99726.00;5122201;27;11311;-78
2022/02/18 09:08:36;;;;;;;;;16.75;16.75;;;;;10.38;71.94;99743.13;5156606;27;10361;-77
2022/02/18 09:11:04;;;;;;;;;19.50;19.25;;;;;10.68;71.58;99749.09;5156037;27;10388;-75
2022/02/18 09:13:31;;;;;;;;;19.50;19.50;;;;;10.75;71.32;99743.75;5156202;27;11215;-74
2022/02/18 09:15:59;;;;;;;;;15.00;15.00;;;;;10.64;70.59;99750.94;5156855;27;10446;-75
2022/02/18 09:18:27;;;;;;;;;20.00;20.00;;;;;10.56;72.02;99738.88;5156465;27;10250;-77
2022/02/18 09:20:55;;;;;;;;;15.25;15.25;;;;;10.45;71.54;99735.84;5156548;27;10512;-76
2022/02/18 09:23:43;;;;;;;;;10.50;10.50;;;;;10.58;71.53;99740.16;5156471;27;10443;-78
2022/02/18 09:26:11;;;;;;;;;16.50;16.50;;;;;10.66;71.31;99737.56;5156436;27;10423;-78
2022/02/18 09:28:40;;;;;;;;;14.50;14.25;;;;;10.49;71.66;99744.22;5137845;27;11142;-78
2022/02/18 09:31:08;;;;;;;;;14.50;14.50;;;;;10.33;71.32;99743.38;5132656;27;10324;-78
2022/02/18 09:33:36;;;;;;;;;16.00;16.00;;;;;10.20;71.41;99746.19;5137539;27;10561;-78
2022/02/18 09:36:31;;;;;;;;;15.75;15.75;;;;;10.37;72.02;99747.88;5151417;27;11367;-78
2022/02/18 09:38:59;;;;;;;;;41.00;38.75;;;;;10.56;71.66;99752.72;5144587;27;11308;-76
2022/02/18 09:41:55;;;;;;;;;23.00;22.00;;;;;10.52;72.19;99752.63;5120177;27;11556;-78
2022/02/18 09:44:52;;;;;;;;;16.25;15.75;;;;;10.71;69.94;99753.91;5134654;27;10990;-78
2022/02/18 09:47:48;;;;;;;;;19.50;19.50;;;;;10.99;70.26;99764.91;5134006;27;10629;-78
2022/02/18 09:50:44;;;;;;;;;14.50;14.50;;;;;11.28;71.21;99763.69;5120317;27;10666;-76
2022/02/18 09:53:34;;;;;;;;;7.75;7.75;;;;;11.28;68.42;99772.78;5135487;27;10234;-75
2022/02/18 09:56:33;;;;;;;;;11.75;11.75;;;;;11.31;67.50;99772.06;5133916;27;10359;-76
2022/02/18 09:59:29;;;;;;;;;16.75;15.75;;;;;11.59;68.21;99785.00;5134059;27;10143;-78
2022/02/18 10:02:25;;;;;;;;;16.00;16.00;;;;;11.95;68.16;99792.97;5134173;27;10226;-78
2022/02/18 10:05:20;;;;;;;;;15.00;15.00;;;;;12.29;67.20;99790.56;5134196;27;10736;-76
2022/02/18 10:08:09;;;;;;;;;17.00;15.00;;;;;12.12;65.91;99793.75;5135364;27;9838;-78
2022/02/18 10:10:42;;;;;;;;;16.00;16.00;;;;;12.04;67.23;99789.19;5116878;27;10109;-77
2022/02/18 10:13:45;;;;;;;;;17.25;17.25;;;;;11.56;66.97;99803.13;5144578;27;9746;-75
2022/02/18 10:16:20;;;;;;;;;19.25;16.50;;;;;11.49;67.74;99800.16;5136897;27;9834;-75
2022/02/18 10:19:16;;;;;;;;;13.50;12.00;;;;;11.28;68.26;99805.19;5152737;27;9849;-74
2022/02/18 10:22:15;;;;;;;;;22.00;21.25;;;;;11.10;68.86;99801.97;5141945;27;9840;-75
2022/02/18 10:24:48;;;;;;;;;14.75;14.75;;;;;10.87;69.02;99798.97;5134370;27;10539;-75
2022/02/18 10:27:15;;;;;;;;;9.75;9.75;;;;;10.72;68.96;99795.03;5134211;27;9987;-75
2022/02/18 10:30:28;;;;;;;;;13.50;13.50;;;;;10.32;70.75;99811.66;5133544;27;10081;-75
2022/02/18 10:33:17;;;;;;;;;14.50;14.50;;;;;10.30;70.29;99813.97;5134642;27;10285;-75
2022/02/18 10:36:07;;;;;;;;;15.75;15.75;;;;;10.55;70.64;99815.50;5134226;27;10000;-75
2022/02/18 10:39:26;;;;;;;;;11.50;11.50;;;;;10.72;70.07;99825.44;5134253;27;10659;-75
2022/02/18 10:41:59;;;;;;;;;15.50;15.50;;;;;10.45;70.08;99831.78;5133993;27;10319;-75
2022/02/18 10:45:11;;;;;;;;;38.00;33.50;;;;;9.98;71.32;99838.66;5151276;27;10977;-74
2022/02/18 10:48:11;;;;;;;;;10.00;10.00;;;;;10.11;71.91;99839.44;5153879;27;11923;-76
2022/02/18 10:51:10;;;;;;;;;12.50;12.50;;;;;10.08;71.71;99833.81;5151862;27;10525;-78
2022/02/18 10:53:40;;;;;;;;;13.50;13.50;;;;;9.88;72.67;99841.88;5143925;27;11336;-79
2022/02/18 10:56:08;;;;;;;;;10.50;10.50;;;;;9.89;71.96;99839.91;5134369;27;10413;-78
2022/02/18 10:58:53;;;;;;;;;9.25;9.25;;;;;9.85;71.77;99842.59;5118302;27;10404;-77
2022/02/18 11:01:21;;;;;;;;;14.00;14.00;;;;;9.73;72.37;99846.13;5135004;27;10576;-76
2022/02/18 11:04:03;;;;;;;;;14.00;14.00;;;;;9.84;72.59;99848.47;5147004;27;10503;-77
2022/02/18 11:07:12;;;;;;;;;9.25;8.25;;;;;9.42;74.05;99854.97;5153492;27;10516;-77
2022/02/18 11:10:28;;;;;;;;;15.25;14.75;;;;;9.41;75.17;99858.91;5144679;27;10908;-78
2022/02/18 11:13:24;;;;;;;;;18.75;18.75;;;;;9.55;75.47;99866.84;5137712;27;10983;-78
2022/02/18 11:15:54;;;;;;;;;9.25;8.25;;;;;9.52;75.67;99878.59;5146568;27;11147;-77
2022/02/18 11:18:21;;;;;;;;;18.00;18.00;;;;;9.53;75.41;99885.72;5154624;27;11100;-77
2022/02/18 11:21:17;;;;;;;;;13.50;13.50;;;;;9.38;75.04;99889.16;5152805;27;10769;-80
2022/02/18 11:24:16;;;;;;;;;14.50;14.50;;;;;9.36;74.57;99892.25;5152771;27;10632;-77
2022/02/18 11:27:02;;;;;;;;;33.50;33.00;;;;;9.39;74.36;99902.59;5153332;27;10788;-76
2022/02/18 11:29:58;;;;;;;;;13.50;13.50;;;;;9.35;74.42;99911.88;5139505;27;11590;-77
2022/02/18 11:33:15;;;;;;;;;15.25;14.50;;;;;9.40;74.26;99906.97;5134610;27;11834;-76
2022/02/18 11:36:27;;;;;;;;;24.25;24.25;;;;;9.47;73.79;99909.97;5133452;27;10944;-77
2022/02/18 11:39:27;;;;;;;;;31.00;31.00;;;;;9.68;73.47;99918.16;5146183;27;11795;-76
2022/02/18 11:42:49;;;;;;;;;87.33;76.67;;;;;9.94;72.67;99915.06;5146657;27;11440;-77
2022/02/18 11:46:05;;;;;;;;;39.25;36.25;;;;;9.82;72.38;99928.09;5137623;27;11558;-77
2022/02/18 11:48:53;;;;;;;;;14.75;13.00;;;;;9.80;73.34;99925.66;5136236;27;11661;-76
2022/02/18 11:51:49;;;;;;;;;56.50;48.00;;;;;9.57;74.63;99941.03;5133305;27;10524;-77
2022/02/18 11:54:45;;;;;;;;;14.25;13.25;;;;;9.57;74.22;99943.78;5133208;27;11457;-79
2022/02/18 11:58:16;;;;;;;;;17.50;15.50;;;;;9.63;74.54;99948.75;5138212;27;10888;-79
2022/02/18 12:01:12;;;;;;;;;10.75;10.75;;;;;9.82;73.19;99962.03;5152384;27;10787;-79
2022/02/18 12:04:19;;;;;;;;;57.25;48.25;;;;;9.77;72.29;99953.16;5135939;27;10666;-78
2022/02/18 12:07:15;;;;;;;;;13.50;12.75;;;;;9.67;72.24;99965.47;5135547;27;11531;-77
2022/02/18 12:09:52;;;;;;;;;14.50;12.75;;;;;9.51;73.25;99976.34;5115902;27;10659;-77
2022/02/18 12:12:28;;;;;;;;;13.25;10.50;;;;;9.53;73.47;99985.09;5137248;27;10583;-80
2022/02/18 12:15:16;;;;;;;;;8.75;8.75;;;;;9.68;73.33;100001.00;5139450;27;10712;-79
2022/02/18 12:17:53;;;;;;;;;13.75;13.75;;;;;9.77;72.66;100000.09;5147140;27;11461;-79
2022/02/18 12:20:27;;;;;;;;;14.75;13.50;;;;;9.74;73.06;100009.88;5130291;27;11585;-78
2022/02/18 12:22:57;;;;;;;;;12.00;10.00;;;;;9.74;73.00;100009.88;5130309;27;10668;-79
2022/02/18 12:25:28;;;;;;;;;14.50;14.50;;;;;9.63;72.48;100006.72;5145896;27;10508;-79
2022/02/18 12:28:20;;;;;;;;;13.75;13.75;;;;;9.39;73.41;100009.41;5139563;27;10868;-78
2022/02/18 12:31:16;;;;;;;;;11.75;11.75;;;;;9.14;74.04;100014.84;5133648;27;10821;-78
2022/02/18 12:34:28;;;;;;;;;13.25;13.25;;;;;9.26;74.28;100021.53;5155939;27;10678;-78
2022/02/18 12:37:24;;;;;;;;;13.50;13.00;;;;;9.33;74.61;100021.81;5135891;27;11062;-78
2022/02/18 12:40:20;;;;;;;;;17.50;17.00;;;;;9.38;74.42;100029.88;5121423;27;10899;-78
2022/02/18 12:43:17;;;;;;;;;14.25;14.25;;;;;9.28;74.58;100042.16;5135200;27;11084;-79
2022/02/18 12:46:14;;;;;;;;;18.25;18.25;;;;;8.87;75.99;100045.69;5135691;27;11179;-78
2022/02/18 12:48:43;;;;;;;;;12.75;12.75;;;;;8.84;75.77;100060.16;5118442;27;11082;-78
2022/02/18 12:51:22;;;;;;;;;11.75;9.50;;;;;8.79;75.67;100063.09;5135901;27;10991;-77
2022/02/18 12:53:56;;;;;;;;;31.00;31.00;;;;;8.51;76.26;100071.03;5118805;27;11168;-75
2022/02/18 12:56:29;;;;;;;;;23.50;23.50;;;;;8.21;76.75;100070.19;5136125;27;11487;-77
2022/02/18 12:59:00;;;;;;;;;40.75;38.50;;;;;7.92;77.03;100076.44;5135952;27;11448;-78
2022/02/18 13:01:29;;;;;;;;;41.25;38.50;;;;;7.70;76.93;100077.44;5155913;27;11545;-75
2022/02/18 13:04:23;;;;;;;;;37.50;37.25;;;;;7.73;76.61;100098.78;5138775;27;11523;-77
2022/02/18 13:07:19;;;;;;;;;32.75;29.50;;;;;7.61;76.28;100099.47;5141385;27;11532;-78
2022/02/18 13:10:29;;;;;;;;;18.75;18.75;;;;;7.42;75.50;100108.03;5155202;27;11489;-80